sensor_id;sensor_type;location;lat;lon;timestamp;temperature;humidity
80577;DHT22;69937;52.420;10.538;2023-09-07T00:00:27;17.50;68.40
80577;DHT22;69937;52.420;10.538;2023-09-07T00:05:27;17.50;68.00
80577;DHT22;69937;52.420;10.538;2023-09-07T00:10:28;17.40;67.70
80577;DHT22;69937;52.420;10.538;2023-09-07T00:15:35;17.40;68.30
80577;DHT22;69937;52.420;10.538;2023-09-07T00:20:36;17.20;67.60
80577;DHT22;69937;52.420;10.538;2023-09-07T00:25:40;17.20;67.90
80577;DHT22;69937;52.420;10.538;2023-09-07T00:30:40;17.10;68.50
80577;DHT22;69937;52.420;10.538;2023-09-07T00:35:41;17.00;69.20
80577;DHT22;69937;52.420;10.538;2023-09-07T00:40:43;17.00;68.60
80577;DHT22;69937;52.420;10.538;2023-09-07T00:45:45;16.90;68.90
80577;DHT22;69937;52.420;10.538;2023-09-07T00:50:46;16.90;69.40
80577;DHT22;69937;52.420;10.538;2023-09-07T00:55:47;17.00;68.40
80577;DHT22;69937;52.420;10.538;2023-09-07T01:00:48;16.90;67.50
80577;DHT22;69937;52.420;10.538;2023-09-07T01:06:07;16.90;68.60
80577;DHT22;69937;52.420;10.538;2023-09-07T01:11:13;16.90;69.30
80577;DHT22;69937;52.420;10.538;2023-09-07T01:16:14;16.80;68.50
80577;DHT22;69937;52.420;10.538;2023-09-07T01:21:16;16.70;68.70
80577;DHT22;69937;52.420;10.538;2023-09-07T01:26:18;16.60;68.90
80577;DHT22;69937;52.420;10.538;2023-09-07T01:31:18;16.40;69.30
80577;DHT22;69937;52.420;10.538;2023-09-07T01:36:19;16.40;70.70
80577;DHT22;69937;52.420;10.538;2023-09-07T01:41:19;16.50;70.20
80577;DHT22;69937;52.420;10.538;2023-09-07T01:46:20;16.50;70.00
80577;DHT22;69937;52.420;10.538;2023-09-07T01:51:20;16.60;69.60
80577;DHT22;69937;52.420;10.538;2023-09-07T01:56:21;16.70;69.40
80577;DHT22;69937;52.420;10.538;2023-09-07T02:01:30;16.70;69.60
80577;DHT22;69937;52.420;10.538;2023-09-07T02:06:31;16.70;69.60
80577;DHT22;69937;52.420;10.538;2023-09-07T02:11:31;16.60;69.50
80577;DHT22;69937;52.420;10.538;2023-09-07T02:16:32;16.60;69.50
80577;DHT22;69937;52.420;10.538;2023-09-07T02:21:33;16.50;69.70
80577;DHT22;69937;52.420;10.538;2023-09-07T02:26:33;16.40;69.90
80577;DHT22;69937;52.420;10.538;2023-09-07T02:31:34;16.40;70.00
80577;DHT22;69937;52.420;10.538;2023-09-07T02:36:34;16.40;69.90
80577;DHT22;69937;52.420;10.538;2023-09-07T02:41:36;16.40;69.90
80577;DHT22;69937;52.420;10.538;2023-09-07T02:46:36;16.30;69.60
80577;DHT22;69937;52.420;10.538;2023-09-07T02:51:37;16.20;69.80
80577;DHT22;69937;52.420;10.538;2023-09-07T02:56:37;16.20;70.20
80577;DHT22;69937;52.420;10.538;2023-09-07T03:01:39;16.20;70.20
80577;DHT22;69937;52.420;10.538;2023-09-07T03:06:39;16.20;70.70
80577;DHT22;69937;52.420;10.538;2023-09-07T03:11:40;16.20;70.70
80577;DHT22;69937;52.420;10.538;2023-09-07T03:16:41;16.30;70.50
80577;DHT22;69937;52.420;10.538;2023-09-07T03:21:41;16.30;70.10
80577;DHT22;69937;52.420;10.538;2023-09-07T03:26:42;16.30;69.90
80577;DHT22;69937;52.420;10.538;2023-09-07T03:31:43;16.20;69.90
80577;DHT22;69937;52.420;10.538;2023-09-07T03:36:44;16.10;70.70
80577;DHT22;69937;52.420;10.538;2023-09-07T03:41:45;16.10;70.40
80577;DHT22;69937;52.420;10.538;2023-09-07T03:46:46;16.00;70.90
80577;DHT22;69937;52.420;10.538;2023-09-07T03:51:46;16.00;70.40
80577;DHT22;69937;52.420;10.538;2023-09-07T03:56:47;16.00;70.30
80577;DHT22;69937;52.420;10.538;2023-09-07T04:01:48;16.00;70.20
80577;DHT22;69937;52.420;10.538;2023-09-07T04:06:48;16.00;70.30
80577;DHT22;69937;52.420;10.538;2023-09-07T04:11:49;15.80;70.40
80577;DHT22;69937;52.420;10.538;2023-09-07T04:16:49;15.80;70.70
80577;DHT22;69937;52.420;10.538;2023-09-07T04:21:51;15.80;70.60
80577;DHT22;69937;52.420;10.538;2023-09-07T04:26:51;15.60;71.20
80577;DHT22;69937;52.420;10.538;2023-09-07T04:31:52;15.60;71.20
80577;DHT22;69937;52.420;10.538;2023-09-07T04:36:53;15.60;71.50
80577;DHT22;69937;52.420;10.538;2023-09-07T04:41:53;15.50;70.70
80577;DHT22;69937;52.420;10.538;2023-09-07T04:46:57;15.40;70.80
80577;DHT22;69937;52.420;10.538;2023-09-07T04:51:57;15.30;71.30
80577;DHT22;69937;52.420;10.538;2023-09-07T04:56:58;15.30;71.30
80577;DHT22;69937;52.420;10.538;2023-09-07T05:01:59;15.40;71.70
80577;DHT22;69937;52.420;10.538;2023-09-07T05:07:01;15.30;71.10
80577;DHT22;69937;52.420;10.538;2023-09-07T05:12:02;15.30;71.30
80577;DHT22;69937;52.420;10.538;2023-09-07T05:17:03;15.20;71.40
80577;DHT22;69937;52.420;10.538;2023-09-07T05:22:03;15.20;71.70
80577;DHT22;69937;52.420;10.538;2023-09-07T05:27:04;15.20;72.00
80577;DHT22;69937;52.420;10.538;2023-09-07T05:32:05;15.20;72.60
80577;DHT22;69937;52.420;10.538;2023-09-07T05:37:06;15.30;73.00
80577;DHT22;69937;52.420;10.538;2023-09-07T05:42:08;15.50;72.70
80577;DHT22;69937;52.420;10.538;2023-09-07T05:47:08;15.60;72.50
80577;DHT22;69937;52.420;10.538;2023-09-07T05:52:09;15.80;72.50
80577;DHT22;69937;52.420;10.538;2023-09-07T05:57:09;16.00;71.90
80577;DHT22;69937;52.420;10.538;2023-09-07T06:02:10;16.20;72.00
80577;DHT22;69937;52.420;10.538;2023-09-07T06:07:10;16.40;71.90
80577;DHT22;69937;52.420;10.538;2023-09-07T06:12:11;16.50;72.10
80577;DHT22;69937;52.420;10.538;2023-09-07T06:17:13;16.60;71.90
80577;DHT22;69937;52.420;10.538;2023-09-07T06:22:13;16.80;71.80
80577;DHT22;69937;52.420;10.538;2023-09-07T06:27:14;17.00;71.40
80577;DHT22;69937;52.420;10.538;2023-09-07T06:32:14;17.20;70.90
80577;DHT22;69937;52.420;10.538;2023-09-07T06:37:15;17.40;70.70
80577;DHT22;69937;52.420;10.538;2023-09-07T06:42:15;17.50;70.80
80577;DHT22;69937;52.420;10.538;2023-09-07T06:47:16;17.80;70.40
80577;DHT22;69937;52.420;10.538;2023-09-07T06:52:16;18.00;69.40
80577;DHT22;69937;52.420;10.538;2023-09-07T06:57:17;18.30;69.20
80577;DHT22;69937;52.420;10.538;2023-09-07T07:02:17;18.70;67.10
80577;DHT22;69937;52.420;10.538;2023-09-07T07:07:18;19.00;66.60
80577;DHT22;69937;52.420;10.538;2023-09-07T07:12:18;19.20;66.10
80577;DHT22;69937;52.420;10.538;2023-09-07T07:17:21;19.50;65.40
80577;DHT22;69937;52.420;10.538;2023-09-07T07:22:22;20.00;64.20
80577;DHT22;69937;52.420;10.538;2023-09-07T07:27:22;20.30;64.20
80577;DHT22;69937;52.420;10.538;2023-09-07T07:32:23;20.50;63.50
80577;DHT22;69937;52.420;10.538;2023-09-07T07:37:23;20.80;62.90
80577;DHT22;69937;52.420;10.538;2023-09-07T07:42:24;21.10;62.40
80577;DHT22;69937;52.420;10.538;2023-09-07T07:47:24;21.40;62.30
80577;DHT22;69937;52.420;10.538;2023-09-07T07:52:26;21.70;60.20
80577;DHT22;69937;52.420;10.538;2023-09-07T07:57:27;22.00;60.10
80577;DHT22;69937;52.420;10.538;2023-09-07T08:02:27;22.20;60.20
80577;DHT22;69937;52.420;10.538;2023-09-07T08:07:28;22.50;59.00
80577;DHT22;69937;52.420;10.538;2023-09-07T08:12:29;22.90;57.30
80577;DHT22;69937;52.420;10.538;2023-09-07T08:17:30;23.10;58.60
80577;DHT22;69937;52.420;10.538;2023-09-07T08:22:30;23.50;56.70
80577;DHT22;69937;52.420;10.538;2023-09-07T08:27:32;24.00;56.80
80577;DHT22;69937;52.420;10.538;2023-09-07T08:32:32;24.40;55.40
80577;DHT22;69937;52.420;10.538;2023-09-07T08:37:33;24.50;54.80
80577;DHT22;69937;52.420;10.538;2023-09-07T08:42:37;24.80;54.90
80577;DHT22;69937;52.420;10.538;2023-09-07T08:47:39;25.20;54.40
80577;DHT22;69937;52.420;10.538;2023-09-07T08:52:40;25.60;52.60
80577;DHT22;69937;52.420;10.538;2023-09-07T08:57:40;25.80;52.70
80577;DHT22;69937;52.420;10.538;2023-09-07T09:02:41;26.10;52.70
80577;DHT22;69937;52.420;10.538;2023-09-07T09:07:41;26.40;52.00
80577;DHT22;69937;52.420;10.538;2023-09-07T09:12:46;26.80;50.70
80577;DHT22;69937;52.420;10.538;2023-09-07T09:17:47;27.00;51.00
80577;DHT22;69937;52.420;10.538;2023-09-07T09:22:49;27.20;50.20
80577;DHT22;69937;52.420;10.538;2023-09-07T09:27:50;27.30;50.50
80577;DHT22;69937;52.420;10.538;2023-09-07T09:32:50;27.50;50.40
80577;DHT22;69937;52.420;10.538;2023-09-07T09:37:51;27.90;49.30
80577;DHT22;69937;52.420;10.538;2023-09-07T09:42:52;28.00;48.90
80577;DHT22;69937;52.420;10.538;2023-09-07T09:47:55;28.10;49.40
80577;DHT22;69937;52.420;10.538;2023-09-07T09:53:05;28.50;48.70
80577;DHT22;69937;52.420;10.538;2023-09-07T09:58:07;28.90;49.40
80577;DHT22;69937;52.420;10.538;2023-09-07T10:03:12;29.30;48.10
80577;DHT22;69937;52.420;10.538;2023-09-07T10:08:16;29.50;46.90
80577;DHT22;69937;52.420;10.538;2023-09-07T10:13:29;29.90;47.80
80577;DHT22;69937;52.420;10.538;2023-09-07T10:18:34;30.30;46.80
80577;DHT22;69937;52.420;10.538;2023-09-07T10:23:40;30.10;46.00
80577;DHT22;69937;52.420;10.538;2023-09-07T10:28:42;30.50;46.20
80577;DHT22;69937;52.420;10.538;2023-09-07T10:33:43;30.50;46.50
80577;DHT22;69937;52.420;10.538;2023-09-07T10:38:44;30.80;45.60
80577;DHT22;69937;52.420;10.538;2023-09-07T10:43:48;30.90;46.10
80577;DHT22;69937;52.420;10.538;2023-09-07T10:48:53;31.50;45.30
80577;DHT22;69937;52.420;10.538;2023-09-07T10:53:53;31.90;43.80
80577;DHT22;69937;52.420;10.538;2023-09-07T10:58:55;31.50;43.60
80577;DHT22;69937;52.420;10.538;2023-09-07T11:03:56;31.90;43.20
80577;DHT22;69937;52.420;10.538;2023-09-07T11:09:00;31.60;43.60
80577;DHT22;69937;52.420;10.538;2023-09-07T11:14:02;31.80;43.60
80577;DHT22;69937;52.420;10.538;2023-09-07T11:19:04;32.00;43.20
80577;DHT22;69937;52.420;10.538;2023-09-07T11:24:05;32.20;42.30
80577;DHT22;69937;52.420;10.538;2023-09-07T11:29:06;32.70;42.20
80577;DHT22;69937;52.420;10.538;2023-09-07T11:34:10;32.60;41.90
80577;DHT22;69937;52.420;10.538;2023-09-07T11:39:11;32.70;41.80
80577;DHT22;69937;52.420;10.538;2023-09-07T11:44:14;33.10;41.60
80577;DHT22;69937;52.420;10.538;2023-09-07T11:49:15;33.30;41.00
80577;DHT22;69937;52.420;10.538;2023-09-07T11:54:20;33.10;41.20
80577;DHT22;69937;52.420;10.538;2023-09-07T11:59:21;33.30;40.90
80577;DHT22;69937;52.420;10.538;2023-09-07T12:04:21;33.40;41.10
80577;DHT22;69937;52.420;10.538;2023-09-07T12:09:22;33.60;40.40
80577;DHT22;69937;52.420;10.538;2023-09-07T12:14:22;34.00;39.70
80577;DHT22;69937;52.420;10.538;2023-09-07T12:19:23;34.00;40.00
80577;DHT22;69937;52.420;10.538;2023-09-07T12:24:24;34.40;39.10
80577;DHT22;69937;52.420;10.538;2023-09-07T12:29:25;34.20;39.70
80577;DHT22;69937;52.420;10.538;2023-09-07T12:34:25;34.10;39.70
80577;DHT22;69937;52.420;10.538;2023-09-07T12:39:26;34.50;39.20
80577;DHT22;69937;52.420;10.538;2023-09-07T12:44:26;34.30;39.50
80577;DHT22;69937;52.420;10.538;2023-09-07T12:49:27;34.70;39.00
80577;DHT22;69937;52.420;10.538;2023-09-07T12:54:27;34.60;38.80
80577;DHT22;69937;52.420;10.538;2023-09-07T12:59:29;35.10;39.10
80577;DHT22;69937;52.420;10.538;2023-09-07T13:04:29;35.30;38.70
80577;DHT22;69937;52.420;10.538;2023-09-07T13:09:30;35.10;39.00
80577;DHT22;69937;52.420;10.538;2023-09-07T13:14:30;35.20;38.70
80577;DHT22;69937;52.420;10.538;2023-09-07T13:19:31;35.20;38.70
80577;DHT22;69937;52.420;10.538;2023-09-07T13:24:31;35.30;38.80
80577;DHT22;69937;52.420;10.538;2023-09-07T13:29:32;35.50;38.70
80577;DHT22;69937;52.420;10.538;2023-09-07T13:34:33;35.60;38.60
80577;DHT22;69937;52.420;10.538;2023-09-07T13:39:33;35.60;38.80
80577;DHT22;69937;52.420;10.538;2023-09-07T13:44:34;36.10;38.90
80577;DHT22;69937;52.420;10.538;2023-09-07T13:49:34;35.80;38.20
80577;DHT22;69937;52.420;10.538;2023-09-07T13:54:35;35.50;38.70
80577;DHT22;69937;52.420;10.538;2023-09-07T13:59:35;35.60;39.00
80577;DHT22;69937;52.420;10.538;2023-09-07T14:04:36;36.20;38.40
80577;DHT22;69937;52.420;10.538;2023-09-07T14:09:37;36.10;38.40
80577;DHT22;69937;52.420;10.538;2023-09-07T14:14:38;35.30;38.70
80577;DHT22;69937;52.420;10.538;2023-09-07T14:19:38;35.10;39.10
80577;DHT22;69937;52.420;10.538;2023-09-07T14:24:39;35.00;39.20
80577;DHT22;69937;52.420;10.538;2023-09-07T14:29:39;34.90;38.90
80577;DHT22;69937;52.420;10.538;2023-09-07T14:34:40;34.80;39.30
80577;DHT22;69937;52.420;10.538;2023-09-07T14:39:40;35.40;39.30
80577;DHT22;69937;52.420;10.538;2023-09-07T14:44:47;34.90;39.70
80577;DHT22;69937;52.420;10.538;2023-09-07T14:49:48;35.00;39.40
80577;DHT22;69937;52.420;10.538;2023-09-07T14:54:48;34.40;38.90
80577;DHT22;69937;52.420;10.538;2023-09-07T14:59:49;34.60;39.00
80577;DHT22;69937;52.420;10.538;2023-09-07T15:04:49;34.70;38.70
80577;DHT22;69937;52.420;10.538;2023-09-07T15:09:50;34.30;38.60
80577;DHT22;69937;52.420;10.538;2023-09-07T15:14:50;34.30;38.90
80577;DHT22;69937;52.420;10.538;2023-09-07T15:19:51;34.40;38.50
80577;DHT22;69937;52.420;10.538;2023-09-07T15:24:51;34.10;38.10
80577;DHT22;69937;52.420;10.538;2023-09-07T15:29:52;33.90;38.10
80577;DHT22;69937;52.420;10.538;2023-09-07T15:34:53;34.00;38.50
80577;DHT22;69937;52.420;10.538;2023-09-07T15:39:53;33.60;38.30
80577;DHT22;69937;52.420;10.538;2023-09-07T15:44:54;33.40;38.20
80577;DHT22;69937;52.420;10.538;2023-09-07T15:49:54;33.00;38.80
80577;DHT22;69937;52.420;10.538;2023-09-07T15:54:55;32.60;39.00
80577;DHT22;69937;52.420;10.538;2023-09-07T15:59:55;32.20;39.30
80577;DHT22;69937;52.420;10.538;2023-09-07T16:04:58;32.20;39.70
80577;DHT22;69937;52.420;10.538;2023-09-07T16:09:59;32.20;39.70
80577;DHT22;69937;52.420;10.538;2023-09-07T16:14:59;31.90;39.80
80577;DHT22;69937;52.420;10.538;2023-09-07T16:20:00;31.70;40.30
80577;DHT22;69937;52.420;10.538;2023-09-07T16:25:01;31.70;40.60
80577;DHT22;69937;52.420;10.538;2023-09-07T16:30:01;31.40;40.40
80577;DHT22;69937;52.420;10.538;2023-09-07T16:35:02;30.90;40.90
80577;DHT22;69937;52.420;10.538;2023-09-07T16:40:03;30.80;41.80
80577;DHT22;69937;52.420;10.538;2023-09-07T16:45:06;30.40;42.30
80577;DHT22;69937;52.420;10.538;2023-09-07T16:50:07;30.00;43.00
80577;DHT22;69937;52.420;10.538;2023-09-07T16:55:09;29.40;43.60
80577;DHT22;69937;52.420;10.538;2023-09-07T17:00:10;29.00;44.00
80577;DHT22;69937;52.420;10.538;2023-09-07T17:05:11;28.80;44.40
80577;DHT22;69937;52.420;10.538;2023-09-07T17:10:18;28.50;44.80
80577;DHT22;69937;52.420;10.538;2023-09-07T17:15:19;28.10;45.60
80577;DHT22;69937;52.420;10.538;2023-09-07T17:20:26;27.90;46.00
80577;DHT22;69937;52.420;10.538;2023-09-07T17:25:26;27.50;46.70
80577;DHT22;69937;52.420;10.538;2023-09-07T17:30:27;27.40;46.80
80577;DHT22;69937;52.420;10.538;2023-09-07T17:35:29;27.10;47.10
80577;DHT22;69937;52.420;10.538;2023-09-07T17:40:30;26.80;47.50
80577;DHT22;69937;52.420;10.538;2023-09-07T17:45:30;26.70;47.70
80577;DHT22;69937;52.420;10.538;2023-09-07T17:50:30;26.50;48.30
80577;DHT22;69937;52.420;10.538;2023-09-07T17:55:31;26.30;48.10
80577;DHT22;69937;52.420;10.538;2023-09-07T18:00:32;26.00;48.80
80577;DHT22;69937;52.420;10.538;2023-09-07T18:05:32;25.90;48.90
80577;DHT22;69937;52.420;10.538;2023-09-07T18:10:33;25.80;49.30
80577;DHT22;69937;52.420;10.538;2023-09-07T18:15:33;25.60;49.70
80577;DHT22;69937;52.420;10.538;2023-09-07T18:20:34;25.30;50.20
80577;DHT22;69937;52.420;10.538;2023-09-07T18:25:38;25.10;50.60
80577;DHT22;69937;52.420;10.538;2023-09-07T18:30:41;25.00;50.80
80577;DHT22;69937;52.420;10.538;2023-09-07T18:35:42;24.80;51.20
80577;DHT22;69937;52.420;10.538;2023-09-07T18:40:44;24.50;51.90
80577;DHT22;69937;52.420;10.538;2023-09-07T18:45:45;24.40;52.30
80577;DHT22;69937;52.420;10.538;2023-09-07T18:50:46;24.20;52.70
80577;DHT22;69937;52.420;10.538;2023-09-07T18:55:46;24.00;53.20
80577;DHT22;69937;52.420;10.538;2023-09-07T19:00:47;23.90;53.50
80577;DHT22;69937;52.420;10.538;2023-09-07T19:05:48;23.80;54.00
80577;DHT22;69937;52.420;10.538;2023-09-07T19:10:49;23.60;53.90
80577;DHT22;69937;52.420;10.538;2023-09-07T19:15:49;23.60;54.10
80577;DHT22;69937;52.420;10.538;2023-09-07T19:20:54;23.50;54.40
80577;DHT22;69937;52.420;10.538;2023-09-07T19:25:55;23.40;54.50
80577;DHT22;69937;52.420;10.538;2023-09-07T19:30:56;23.20;54.80
80577;DHT22;69937;52.420;10.538;2023-09-07T19:35:57;23.00;55.50
80577;DHT22;69937;52.420;10.538;2023-09-07T19:40:57;22.90;55.40
80577;DHT22;69937;52.420;10.538;2023-09-07T19:45:58;22.70;55.70
80577;DHT22;69937;52.420;10.538;2023-09-07T19:50:58;22.60;56.30
80577;DHT22;69937;52.420;10.538;2023-09-07T19:56:07;22.50;56.10
80577;DHT22;69937;52.420;10.538;2023-09-07T20:01:16;22.40;55.90
80577;DHT22;69937;52.420;10.538;2023-09-07T20:06:18;22.30;56.30
80577;DHT22;69937;52.420;10.538;2023-09-07T20:11:22;22.30;55.90
80577;DHT22;69937;52.420;10.538;2023-09-07T20:16:23;22.30;56.10
80577;DHT22;69937;52.420;10.538;2023-09-07T20:21:23;22.30;55.80
80577;DHT22;69937;52.420;10.538;2023-09-07T20:26:24;22.20;56.10
80577;DHT22;69937;52.420;10.538;2023-09-07T20:31:25;22.20;56.50
80577;DHT22;69937;52.420;10.538;2023-09-07T20:36:25;22.10;56.60
80577;DHT22;69937;52.420;10.538;2023-09-07T20:41:26;22.10;56.60
80577;DHT22;69937;52.420;10.538;2023-09-07T20:46:27;22.00;56.70
80577;DHT22;69937;52.420;10.538;2023-09-07T20:51:27;21.90;56.90
80577;DHT22;69937;52.420;10.538;2023-09-07T20:56:28;21.80;57.50
80577;DHT22;69937;52.420;10.538;2023-09-07T21:01:29;21.50;57.80
80577;DHT22;69937;52.420;10.538;2023-09-07T21:06:29;21.20;58.30
80577;DHT22;69937;52.420;10.538;2023-09-07T21:11:30;20.90;59.00
80577;DHT22;69937;52.420;10.538;2023-09-07T21:16:30;20.70;59.30
80577;DHT22;69937;52.420;10.538;2023-09-07T21:21:32;20.60;60.00
80577;DHT22;69937;52.420;10.538;2023-09-07T21:26:32;20.50;60.00
80577;DHT22;69937;52.420;10.538;2023-09-07T21:31:33;20.40;60.00
80577;DHT22;69937;52.420;10.538;2023-09-07T21:36:34;20.10;60.40
80577;DHT22;69937;52.420;10.538;2023-09-07T21:41:50;20.00;61.10
80577;DHT22;69937;52.420;10.538;2023-09-07T21:46:51;20.00;61.20
80577;DHT22;69937;52.420;10.538;2023-09-07T21:51:52;19.90;61.10
80577;DHT22;69937;52.420;10.538;2023-09-07T21:56:53;19.90;61.00
80577;DHT22;69937;52.420;10.538;2023-09-07T22:01:53;19.90;61.00
80577;DHT22;69937;52.420;10.538;2023-09-07T22:06:55;19.80;60.90
80577;DHT22;69937;52.420;10.538;2023-09-07T22:11:55;19.70;60.90
80577;DHT22;69937;52.420;10.538;2023-09-07T22:16:56;19.80;60.50
80577;DHT22;69937;52.420;10.538;2023-09-07T22:21:56;19.80;60.50
80577;DHT22;69937;52.420;10.538;2023-09-07T22:26:57;19.70;60.80
80577;DHT22;69937;52.420;10.538;2023-09-07T22:31:58;19.50;61.30
80577;DHT22;69937;52.420;10.538;2023-09-07T22:37:01;19.40;61.20
80577;DHT22;69937;52.420;10.538;2023-09-07T22:42:02;19.40;61.10
80577;DHT22;69937;52.420;10.538;2023-09-07T22:47:03;19.50;60.90
80577;DHT22;69937;52.420;10.538;2023-09-07T22:52:03;19.50;61.00
80577;DHT22;69937;52.420;10.538;2023-09-07T22:57:04;19.40;61.40
80577;DHT22;69937;52.420;10.538;2023-09-07T23:02:05;19.30;61.70
80577;DHT22;69937;52.420;10.538;2023-09-07T23:07:05;19.00;62.20
80577;DHT22;69937;52.420;10.538;2023-09-07T23:12:06;18.70;62.80
80577;DHT22;69937;52.420;10.538;2023-09-07T23:17:07;18.60;63.30
80577;DHT22;69937;52.420;10.538;2023-09-07T23:22:07;18.50;63.90
80577;DHT22;69937;52.420;10.538;2023-09-07T23:27:08;18.40;64.10
80577;DHT22;69937;52.420;10.538;2023-09-07T23:32:08;18.30;64.60
80577;DHT22;69937;52.420;10.538;2023-09-07T23:37:09;18.20;64.30
80577;DHT22;69937;52.420;10.538;2023-09-07T23:42:10;18.00;64.40
80577;DHT22;69937;52.420;10.538;2023-09-07T23:47:10;17.70;65.40
80577;DHT22;69937;52.420;10.538;2023-09-07T23:52:11;17.50;66.00
80577;DHT22;69937;52.420;10.538;2023-09-07T23:57:11;17.20;66.50
